Aviston, Illinois
Current Conditions -  °F | °C
As of 11:58 PM on Wednesday 28 Jan 2015 (Local Time) from KBLV Reporting Station
Clear Clear  
Wind Chill: 40°   Ceiling: Unl
Heat Index: 44°   Visibility: 10mi
Dew Point: 35°   Wind: 6mph
Humidity: 72%   Direction: NA
Pressure: 29.83"   Gusts: NA
Location:  38.61°N, 89.61°W
Report Text: KBLV 290558Z AUTO VRB05KT 10SM CLR 06/02 A2983 RMK AO2 SLP107 60000 T00640016 10073 20048 400861047 57032 $
Loading
Personal Weather Stations






























Interactive Weather Map New forecast layout! Learn more

10-Day Weather Forecast

Advertisements
Track Severe Weather on mobile